Buffalo, WY

3:33 PM MDT on July 02, 2015 (GMT -0600)
Buffalo | | Change Station
CLOSE
Current Station
Personal Weather Station
Location: Buffalo, WY
Elevation: 4708 ft
Nearby Weather Stations

Elev 4708 ft 44.34 °N, 106.70 °W | Updated 17 seconds ago

Mostly Cloudy
Mostly Cloudy
77.5 °F
Feels Like 79 °F
N
8.1
Wind Variable Wind from NE
Gusts 12.3 mph

Today
High -- | Low -- °F
--% Chance of Precip.
Yesterday
High -- | Low -- °F
Precip. -- in
5:27 AM 8:54 PM
Full, 99% visible
Pressure 30.04 in
Visibility 10.0 miles
Clouds Few 4500 ft
Mostly Cloudy 10000 ft
Heat Index 79 °F
Dew Point 58 °F
Humidity 51%
Rainfall 0.00 in
Snow Depth Not available.
UV 1.0 out of 12
Pollen 5.60 out of 12
Air Quality Not available.
Flu Activity Not available.
METAR KBYG 022053Z AUTO 36006KT 10SM FEW045 BKN100 25/13 A3020 RMK AO2 LTG DSNT W RAB38E49 SLP173 P0000 60000 T02500128 58006

More Conditions Fewer Conditions

Pressure 30.04 in
Visibility 10.0 miles
Clouds Few 4500 ft
Mostly Cloudy 10000 ft
Heat Index 79 °F
Dew Point 58 °F
Humidity 51%
Rainfall 0.00 in
Snow Depth Not available.
UV 1.0 out of 12
Pollen 5.60 out of 12
Air Quality Not available.
Flu Activity Not available.
METAR KBYG 022053Z AUTO 36006KT 10SM FEW045 BKN100 25/13 A3020 RMK AO2 LTG DSNT W RAB38E49 SLP173 P0000 60000 T02500128 58006

More Conditions Fewer Conditions

10-Day Weather Forecast

×

Almanac

Astronomy

Jul. 02, 2015 Rise Set
Actual Time
Civil Twilight
Nautical Twilight
Astronomical Twilight
Moon
Length of Visible Light
Length of Day
Tomorrow will be .
, % of the Moon is Illuminated

Today's Extremes

State Highs State Lows

Community

WunderPhotos

Upload Photos

1,834,547 photos uploaded!

WunderBlogs® & News

Nearby

Air Quality

  Air Quality AQ Index Pollutant
Not available.

Snow Depth

Station Depth Elevation

Earthquake Activity

City Distance Mag. Time & Date
Minimum magnitude displayed is 2.5.

Coastal Water Temperatures

Place Temperature

Stations

Nearby Weather Stations

Station Location Temp. Windchill Dew Point Humidity Wind Precip. Elev Updated Type